Latest Weather Observations for Jandakot

IDW60801

Issued at 8:05 am WST Tuesday 29 July 2014 (issued every 30 minutes, with the page automatically refreshed every 10 minutes)

About weather observations | Map of weather stations | Latest weather observations for WA | Other Formats
Station Details ID: 009172 Name: JANDAKOT AERO Lat: -32.10 Lon: 115.88 Height: 30.0 m
Data from the previous 72 hours. | See also: Recent months at Jandakot
Date/Time
WST
Temp
°C
App
Temp
°C
Dew
Point
Rel
Hum
%
Delta-T
°C
Wind Press
QNH
hPa
Press
MSL
hPa
Rain
since 9 am
mm
Dir
 
Spd
km/h
Gust
km/h
Spd
kts
Gust
kts
29/08:00am 12.7 11.4 11.4 92 0.7 N 9 13 5 7 1023.9 - 0.0
29/07:30am 11.6 10.5 10.8 95 0.4 NE 7 9 4 5 1023.6 - 0.0
29/07:00am 11.7 10.7 10.9 95 0.4 E 7 9 4 5 1023.1 - 0.0
29/06:30am 12.1 10.4 11.1 94 0.5 NE 11 11 6 6 1022.9 - 0.0
29/06:00am 12.3 11.4 11.3 94 0.5 NE 7 9 4 5 1022.7 1022.7 0.0
29/05:30am 12.1 11.1 11.1 94 0.5 NNE 7 9 4 5 1022.4 - 0.0
29/05:00am 11.8 11.0 11.2 96 0.3 NE 6 6 3 3 1022.3 - 0.0
29/04:30am 11.4 10.3 10.8 96 0.3 NE 7 9 4 5 1022.4 - 0.0
29/04:00am 11.2 10.0 10.2 94 0.5 NNE 7 9 4 5 1022.5 - 0.0
29/03:30am 11.4 9.7 10.0 91 0.7 NNE 9 11 5 6 1022.4 - 0.0
29/03:00am 14.0 11.8 9.5 74 2.3 WNW 11 13 6 7 1022.6 1022.6 0.0
29/02:30am 15.2 12.7 9.8 70 2.8 W 13 19 7 10 1022.5 - 0.0
29/02:00am 15.7 13.6 11.0 73 2.5 W 13 20 7 11 1022.6 - 0.0
29/01:30am 15.9 14.6 12.4 80 1.9 W 11 15 6 8 1022.8 - 0.0
29/01:00am 16.1 14.1 11.5 74 2.5 W 13 19 7 10 1023.0 - 0.0
29/12:30am 16.0 14.3 12.3 79 2.0 W 13 19 7 10 1023.0 - 0.0
29/12:00am 15.8 14.1 12.3 80 1.9 W 13 17 7 9 1023.0 1023.0 0.0
 
Date/Time
WST
Temp
°C
App
Temp
°C
Dew
Point
Rel
Hum
%
Delta-T
°C
Wind Press
QNH
hPa
Press
MSL
hPa
Rain
since 9 am
mm
Dir
 
Spd
km/h
Gust
km/h
Spd
kts
Gust
kts
28/11:30pm 15.8 14.4 12.3 80 1.9 W 11 15 6 8 1023.0 - 0.0
28/11:00pm 15.7 13.9 12.0 78 2.0 W 13 17 7 9 1023.2 - 0.0
28/10:30pm 15.5 14.8 12.0 79 1.9 W 7 9 4 5 1023.4 - 0.0
28/10:00pm 15.7 13.5 12.0 78 2.0 W 15 20 8 11 1023.5 - 0.0
28/09:30pm 15.9 13.4 12.2 78 2.0 W 17 26 9 14 1023.7 - 0.0
28/09:00pm 15.5 14.1 12.2 81 1.8 W 11 15 6 8 1023.6 1023.6 0.0
28/08:30pm 15.5 13.4 12.4 82 1.7 W 15 20 8 11 1023.5 - 0.0
28/08:00pm 15.7 12.3 10.4 71 2.8 W 19 24 10 13 1023.4 - 0.0
28/07:30pm 16.3 13.2 10.4 68 3.1 W 17 24 9 13 1023.4 - 0.0
28/07:00pm 15.7 13.0 11.8 77 2.1 W 17 24 9 13 1023.4 - 0.0
28/06:30pm 16.3 13.1 11.3 72 2.7 W 19 26 10 14 1023.1 - 0.0
28/06:00pm 16.7 13.4 10.9 68 3.1 W 19 28 10 15 1022.8 1022.8 0.0
28/05:30pm 16.5 13.0 10.9 69 3.0 W 20 28 11 15 1022.6 - 0.0
28/05:00pm 17.4 13.4 9.1 58 4.3 W 20 30 11 16 1022.4 - 0.0
28/04:30pm 17.6 13.5 8.7 56 4.6 W 20 32 11 17 1022.3 - 0.0
28/04:00pm 17.8 12.6 8.9 56 4.6 W 26 37 14 20 1022.0 - 0.0
28/03:30pm 18.1 12.8 8.3 52 5.0 W 26 35 14 19 1021.7 - 0.0
28/03:00pm 18.5 13.6 9.8 57 4.6 W 26 32 14 17 1021.6 1021.6 0.0
28/02:30pm 18.6 13.3 9.9 57 4.6 WNW 28 35 15 19 1022.0 - 0.0
28/02:00pm 18.9 13.5 9.6 54 4.9 W 28 37 15 20 1022.2 - 0.0
28/01:30pm 19.0 13.2 8.1 49 5.6 WNW 28 39 15 21 1022.5 - 0.0
28/01:00pm 19.0 14.8 9.7 54 4.9 W 22 35 12 19 1022.6 - 0.0
28/12:30pm 18.0 14.1 8.7 54 4.8 W 19 30 10 16 1023.3 - 0.0
28/12:00pm 17.8 12.0 9.6 58 4.3 W 30 41 16 22 1023.5 1023.5 0.0
28/11:30am 18.3 13.3 9.5 56 4.6 WNW 26 37 14 20 1023.6 - 0.0
28/11:00am 18.1 13.3 10.4 60 4.1 WNW 26 33 14 18 1023.6 - 0.0
28/10:30am 17.9 13.0 9.9 59 4.2 W 26 37 14 20 1023.8 - 0.0
28/10:00am 16.9 12.2 9.2 60 4.0 W 24 33 13 18 1023.8 - 0.0
28/09:30am 16.8 14.2 10.8 67 3.2 WNW 15 20 8 11 1023.4 - 0.0
28/09:00am 15.7 13.4 11.8 77 2.1 W 15 20 8 11 1023.4 1023.4 5.8
28/08:30am 15.8 13.5 10.5 71 2.8 WNW 13 15 7 8 1023.1 - 5.8
28/08:00am 15.1 11.9 10.1 72 2.6 W 17 20 9 11 1022.8 - 5.8
28/07:30am 14.0 11.7 10.6 80 1.8 WNW 13 15 7 8 1022.6 - 5.8
28/07:00am 14.5 10.4 10.1 75 2.3 WNW 22 28 12 15 1022.2 - 5.8
28/06:41am 14.4 9.5 11.2 81 1.7 W 28 46 15 25 1022.2 - 5.6
28/06:30am 14.9 11.7 10.1 73 2.5 WNW 17 22 9 12 1021.9 - 5.6
28/06:00am 15.0 11.8 9.8 71 2.7 WNW 17 24 9 13 1021.8 1021.8 5.6
28/05:30am 15.0 11.4 8.4 64 3.3 WNW 17 24 9 13 1021.7 - 5.6
28/05:00am 14.1 10.9 10.0 76 2.1 WNW 17 26 9 14 1021.7 - 5.6
28/04:30am 13.8 11.1 10.3 79 1.8 WNW 15 17 8 9 1021.7 - 5.6
28/04:00am 14.5 11.0 10.9 79 1.9 W 20 30 11 16 1021.9 - 5.6
28/03:30am 14.6 12.4 9.3 70 2.7 WNW 11 17 6 9 1021.9 - 5.6
28/03:00am 14.6 11.8 8.6 67 3.0 WNW 13 19 7 10 1022.0 1022.0 5.6
28/02:30am 13.9 11.1 8.5 70 2.7 WNW 13 17 7 9 1022.2 - 5.6
28/02:00am 14.5 11.1 7.8 64 3.3 WNW 15 19 8 10 1022.2 - 5.6
28/01:30am 14.8 10.8 8.4 65 3.2 W 19 26 10 14 1022.2 - 5.6
28/01:00am 15.2 11.5 9.6 69 2.9 W 19 22 10 12 1022.2 - 5.6
28/12:30am 15.0 11.8 9.8 71 2.7 W 17 20 9 11 1022.2 - 5.6
28/12:00am 15.3 12.2 10.3 72 2.6 WNW 17 24 9 13 1022.3 1022.3 5.6
 
Date/Time
WST
Temp
°C
App
Temp
°C
Dew
Point
Rel
Hum
%
Delta-T
°C
Wind Press
QNH
hPa
Press
MSL
hPa
Rain
since 9 am
mm
Dir
 
Spd
km/h
Gust
km/h
Spd
kts
Gust
kts
27/11:30pm 15.4 11.8 10.0 70 2.8 W 19 26 10 14 1022.5 - 5.6
27/11:00pm 14.9 11.5 9.0 68 3.0 WNW 17 20 9 11 1022.7 - 5.6
27/10:30pm 13.8 11.8 10.3 79 1.8 NW 11 15 6 8 1022.8 - 5.6
27/10:00pm 14.7 11.5 10.1 74 2.4 WNW 17 20 9 11 1022.9 - 5.6
27/09:30pm 14.2 11.5 9.1 71 2.6 WNW 13 15 7 8 1022.9 - 5.6
27/09:00pm 14.8 12.4 10.2 74 2.4 WNW 13 17 7 9 1022.8 1022.8 5.6
27/08:30pm 14.9 13.5 10.9 77 2.1 WSW 9 13 5 7 1023.1 - 5.6
27/08:00pm 14.5 12.2 10.3 76 2.2 WNW 13 15 7 8 1022.7 - 5.6
27/07:30pm 14.7 12.4 10.5 76 2.2 W 13 24 7 13 1022.6 - 5.6
27/07:00pm 14.1 13.1 11.1 82 1.6 W 7 11 4 6 1022.4 - 5.6
27/06:30pm 14.9 13.1 10.9 77 2.1 W 11 17 6 9 1022.1 - 5.6
27/06:00pm 15.4 12.9 10.9 74 2.4 W 15 26 8 14 1021.9 1021.9 5.6
27/05:30pm 16.0 13.2 10.1 68 3.1 W 15 20 8 11 1021.5 - 5.6
27/05:00pm 16.7 12.8 9.6 63 3.7 W 20 28 11 15 1021.4 - 5.6
27/04:30pm 17.1 13.1 10.3 64 3.6 W 22 28 12 15 1021.1 - 5.6
27/04:00pm 16.2 14.7 13.0 81 1.8 W 13 19 7 10 1021.0 - 5.6
27/03:46pm 15.3 11.0 13.1 87 1.2 WSW 28 41 15 22 1021.1 - 5.6
27/03:30pm 18.4 14.6 11.0 62 4.0 W 22 28 12 15 1020.7 - 5.6
27/03:00pm 18.5 13.1 10.9 61 4.1 W 30 37 16 20 1020.5 1020.5 5.6
27/02:30pm 17.6 14.2 12.5 72 2.8 W 22 30 12 16 1020.5 - 5.6
27/02:06pm 16.7 11.8 12.5 76 2.3 W 30 48 16 26 1020.5 - 5.6
27/02:00pm 17.4 11.7 11.9 70 3.0 W 33 48 18 26 1020.4 - 5.6
27/01:30pm 18.2 14.1 11.6 65 3.6 W 24 33 13 18 1020.5 - 5.6
27/01:00pm 18.2 14.3 12.0 67 3.4 WNW 24 33 13 18 1020.8 - 5.6
27/12:30pm 17.5 13.8 11.6 68 3.2 WNW 22 30 12 16 1021.2 - 5.6
27/12:00pm 17.6 14.2 11.3 66 3.4 W 20 26 11 14 1021.6 1021.6 5.6
27/11:30am 17.0 12.4 11.2 68 3.1 W 26 35 14 19 1022.0 - 5.6
27/11:00am 16.7 14.3 13.7 82 1.7 WNW 19 24 10 13 1022.2 - 5.6
27/10:38am 15.0 12.9 13.7 92 0.7 W 17 24 9 13 1022.3 - 5.6
27/10:30am 14.9 12.2 13.6 92 0.7 W 20 28 11 15 1022.5 - 5.6
27/10:20am 14.6 11.5 13.3 92 0.7 W 22 39 12 21 1022.4 - 5.4
27/10:07am 14.7 13.8 13.6 93 0.6 WSW 11 15 6 8 1022.2 - 5.2
27/10:00am 14.6 13.6 13.5 93 0.6 WSW 11 19 6 10 1022.2 - 5.2
27/09:30am 14.8 13.8 13.4 91 0.8 WSW 11 17 6 9 1022.1 - 1.6
27/09:09am 14.9 13.0 12.9 88 1.1 W 15 20 8 11 1021.8 - 0.0
27/09:00am 14.7 11.4 12.7 88 1.1 W 22 35 12 19 1021.7 1021.7 8.8
27/08:54am 15.0 11.6 12.6 85 1.3 W 22 35 12 19 1021.8 - 8.8
27/08:30am 14.6 13.7 12.6 88 1.1 WNW 9 13 5 7 1021.4 - 8.6
27/08:00am 13.9 11.4 12.2 89 0.9 WNW 17 24 9 13 1021.1 - 8.6
27/07:30am 13.9 9.9 11.8 87 1.1 W 24 37 13 20 1021.1 - 8.4
27/07:00am 14.7 10.8 8.5 66 3.1 NW 19 24 10 13 1020.3 - 8.2
27/06:30am 14.6 11.5 8.7 67 3.0 WNW 15 19 8 10 1020.1 - 8.2
27/06:00am 13.8 11.0 8.6 71 2.6 NW 13 17 7 9 1019.9 1019.9 8.2
27/05:30am 13.5 10.2 8.0 69 2.7 WNW 15 19 8 10 1019.8 - 8.2
27/05:00am 14.4 10.8 8.2 66 3.1 WNW 17 24 9 13 1019.7 - 8.2
27/04:30am 14.2 10.8 7.5 64 3.3 WNW 15 20 8 11 1019.8 - 8.2
27/04:00am 14.9 10.4 6.9 58 3.9 W 20 28 11 15 1019.9 - 8.2
27/03:30am 14.1 10.5 6.9 62 3.5 WNW 15 22 8 12 1019.9 - 8.2
27/03:00am 14.3 10.4 6.9 61 3.6 W 17 20 9 11 1020.0 1020.0 8.2
27/02:30am 14.4 10.4 6.5 59 3.8 WNW 17 24 9 13 1020.0 - 8.2
27/02:00am 14.2 10.5 6.3 59 3.8 W 15 20 8 11 1020.1 - 8.2
27/01:30am 14.6 10.5 6.0 56 4.1 W 17 24 9 13 1020.2 - 8.2
27/01:00am 15.1 10.0 6.2 55 4.3 W 22 32 12 17 1020.2 - 8.2
27/12:30am 14.5 10.3 5.9 56 4.1 WNW 17 22 9 12 1020.2 - 8.2
27/12:00am 14.1 10.7 5.9 57 3.9 WNW 13 17 7 9 1020.2 1020.2 8.2
 
Date/Time
WST
Temp
°C
App
Temp
°C
Dew
Point
Rel
Hum
%
Delta-T
°C
Wind Press
QNH
hPa
Press
MSL
hPa
Rain
since 9 am
mm
Dir
 
Spd
km/h
Gust
km/h
Spd
kts
Gust
kts
26/11:30pm 13.7 10.2 7.1 64 3.2 WNW 15 20 8 11 1020.2 - 8.2
26/11:00pm 11.6 11.1 7.9 78 1.8 CALM 0 4 0 2 1020.1 - 8.2
26/10:30pm 12.9 10.4 6.6 65 3.0 W 9 13 5 7 1020.1 - 8.2
26/10:00pm 13.7 10.0 6.4 61 3.5 W 15 19 8 10 1020.0 - 8.2
26/09:30pm 14.1 9.8 6.9 62 3.5 WNW 19 26 10 14 1019.9 - 8.2
26/09:00pm 13.5 10.2 8.0 69 2.7 WNW 15 24 8 13 1019.7 1019.7 8.2
26/08:30pm 13.5 11.4 9.8 78 1.9 WNW 11 15 6 8 1019.7 - 8.2
26/08:00pm 10.6 9.2 9.6 93 0.5 WNW 7 11 4 6 1019.4 - 8.2
26/07:30pm 10.3 9.3 8.9 91 0.7 WNW 4 6 2 3 1019.1 - 8.2
26/07:00pm 10.8 9.9 9.2 90 0.8 W 4 6 2 3 1019.1 - 8.2
26/06:30pm 11.7 10.4 9.3 85 1.2 WNW 6 7 3 4 1018.6 - 8.2
26/06:00pm 13.2 11.7 9.3 77 2.0 W 7 9 4 5 1018.1 1018.1 8.2
26/05:30pm 14.5 12.6 9.2 70 2.7 W 9 11 5 6 1017.9 - 8.2
26/05:00pm 15.8 12.6 8.3 61 3.8 WSW 15 20 8 11 1017.8 - 8.2
26/04:30pm 16.0 12.0 8.3 60 3.9 W 19 26 10 14 1017.6 - 8.2
26/04:00pm 17.0 12.6 9.1 59 4.1 WSW 22 32 12 17 1017.4 - 8.2
26/03:30pm 17.1 13.6 11.0 67 3.3 WSW 20 30 11 16 1016.8 - 8.2
26/03:00pm 16.7 14.0 11.7 72 2.7 WSW 17 28 9 15 1016.4 1016.3 8.2
26/02:30pm 16.0 11.8 12.5 80 1.9 SW 26 37 14 20 1016.1 - 8.2
26/02:00pm 15.7 12.8 13.0 84 1.5 WSW 20 30 11 16 1016.0 - 8.2
26/01:40pm 15.2 13.2 13.8 91 0.8 WSW 17 22 9 12 1015.9 - 8.2
26/01:30pm 14.9 12.5 13.8 93 0.6 WSW 19 30 10 16 1015.9 - 8.2
26/01:00pm 15.2 11.6 14.3 94 0.5 WSW 26 39 14 21 1015.7 - 7.6
26/12:46pm 15.7 12.7 14.7 94 0.6 WSW 24 35 13 19 1015.6 - 7.2
26/12:38pm 15.9 12.1 14.7 93 0.7 WSW 28 44 15 24 1015.6 - 6.8
26/12:30pm 16.0 11.3 14.4 90 0.9 WSW 32 46 17 25 1015.5 - 6.8
26/12:26pm 15.9 11.6 14.3 90 0.9 WSW 30 46 16 25 1015.4 - 6.8
26/12:25pm 16.0 11.7 14.4 90 0.9 W 30 46 16 25 1015.4 - 6.8
26/12:09pm 16.2 12.9 15.0 93 0.7 W 26 39 14 21 1015.5 - 6.8
26/12:00pm 15.7 11.9 14.7 94 0.6 W 28 43 15 23 1015.5 1015.4 6.8
26/11:58am 15.7 11.5 14.7 94 0.6 W 30 43 16 23 1015.6 - 6.8
26/11:30am 15.3 11.0 14.4 94 0.5 WSW 30 44 16 24 1015.5 - 6.2
26/11:18am 15.5 10.9 14.6 94 0.5 W 32 46 17 25 1015.5 - 4.4
26/11:10am 15.9 9.7 14.9 94 0.6 W 41 59 22 32 1015.4 - 3.4
26/11:05am 16.7 10.2 15.1 90 0.9 WNW 43 57 23 31 1015.2 - 2.4
26/11:04am 17.2 10.8 15.3 88 1.1 WNW 43 57 23 31 1015.3 - 1.8
26/11:00am 18.0 13.7 15.4 85 1.5 NNW 32 48 17 26 1014.8 - 0.6
26/10:36am 17.9 13.4 15.5 86 1.4 NW 33 46 18 25 1015.0 - 0.4
26/10:30am 17.3 12.4 15.2 87 1.2 NW 35 50 19 27 1015.0 - 0.4
26/10:21am 17.0 12.2 14.7 86 1.3 NW 33 48 18 26 1015.0 - 0.4
26/10:00am 17.2 13.1 15.0 87 1.3 NW 30 43 16 23 1015.1 - 0.4
26/09:46am 17.4 13.6 14.6 83 1.6 NNW 28 50 15 27 1015.1 - 0.2
26/09:30am 16.3 14.7 15.1 93 0.7 N 17 22 9 12 1015.1 - 0.2
26/09:24am 15.9 14.6 14.7 93 0.7 N 15 19 8 10 1015.0 - 0.0
26/09:00am 14.8 12.5 14.1 96 0.4 N 19 24 10 13 1015.1 1015.0 11.4
26/08:55am 14.9 12.4 14.2 96 0.4 NNE 20 24 11 13 1015.1 - 11.4
26/08:30am 14.1 11.0 13.4 96 0.4 NNE 22 30 12 16 1015.1 - 11.2
26/08:17am 14.2 11.7 13.5 96 0.4 NNE 19 26 10 14 1015.0 - 11.2

Other Formats:

Comma delimited format used in spreadsheet applications
http://www.bom.gov.au/fwo/IDW60801/IDW60801.94609.axf

JavaScript Object Notation format (JSON) in row-major order
http://www.bom.gov.au/fwo/IDW60801/IDW60801.94609.json